createdAt,value
2017-08-17T00:01:21.634Z,18.40
2017-08-17T00:03:49.830Z,18.30
2017-08-17T00:06:17.981Z,18.30
2017-08-17T00:08:46.911Z,18.30
2017-08-17T00:11:15.175Z,18.30
2017-08-17T00:13:43.335Z,18.30
2017-08-17T00:16:11.487Z,18.20
2017-08-17T00:18:40.438Z,18.00
2017-08-17T00:21:08.613Z,18.00
2017-08-17T00:23:36.782Z,17.90
2017-08-17T00:26:04.963Z,17.80
2017-08-17T00:28:33.138Z,17.80
2017-08-17T00:31:01.398Z,17.80
2017-08-17T00:33:29.581Z,17.80
2017-08-17T00:35:57.762Z,17.80
2017-08-17T00:38:25.913Z,17.70
2017-08-17T00:40:54.110Z,17.70
2017-08-17T00:43:22.284Z,17.70
2017-08-17T00:45:50.431Z,17.60
2017-08-17T00:48:18.633Z,17.60
2017-08-17T00:50:46.810Z,17.70
2017-08-17T00:53:15.238Z,17.80
2017-08-17T00:55:44.280Z,17.70
2017-08-17T00:58:12.441Z,17.70
2017-08-17T01:00:40.701Z,17.60
2017-08-17T01:03:08.865Z,17.50
2017-08-17T01:05:37.778Z,17.40
2017-08-17T01:08:05.955Z,17.40
2017-08-17T01:10:34.103Z,17.50
2017-08-17T01:13:03.014Z,17.60
2017-08-17T01:15:31.214Z,17.60
2017-08-17T01:17:59.366Z,17.60
2017-08-17T01:20:27.530Z,17.60
2017-08-17T01:22:55.718Z,17.60
2017-08-17T01:25:24.116Z,17.60
2017-08-17T01:27:52.305Z,17.60
2017-08-17T01:30:20.459Z,17.60
2017-08-17T01:32:48.612Z,17.60
2017-08-17T01:35:16.782Z,17.60
2017-08-17T01:37:44.960Z,17.60
2017-08-17T01:40:13.148Z,17.60
2017-08-17T01:42:41.314Z,17.70
2017-08-17T01:45:09.463Z,17.70
2017-08-17T01:47:38.416Z,17.60
2017-08-17T01:50:06.561Z,17.60
2017-08-17T01:52:34.706Z,17.60
2017-08-17T01:55:02.883Z,17.50
2017-08-17T01:57:31.793Z,17.40
2017-08-17T01:59:59.944Z,17.40
2017-08-17T02:02:28.901Z,17.40
2017-08-17T02:04:57.075Z,17.30
2017-08-17T02:07:25.224Z,17.30
2017-08-17T02:09:53.404Z,17.30
2017-08-17T02:12:21.569Z,17.30
2017-08-17T02:14:49.738Z,17.30
2017-08-17T02:17:17.914Z,17.30
2017-08-17T02:19:46.066Z,17.30
2017-08-17T02:22:14.211Z,17.20
2017-08-17T02:24:42.404Z,17.30
2017-08-17T02:27:11.321Z,17.30
2017-08-17T02:29:39.475Z,17.30
2017-08-17T02:32:08.419Z,17.00
2017-08-17T02:34:36.562Z,17.10
2017-08-17T02:37:04.717Z,17.00
2017-08-17T02:39:32.903Z,17.10
2017-08-17T02:42:01.077Z,17.10
2017-08-17T02:44:29.226Z,17.20
2017-08-17T02:46:57.403Z,17.20
2017-08-17T02:49:26.330Z,17.20
2017-08-17T02:51:54.753Z,17.20
2017-08-17T02:54:23.162Z,17.10
2017-08-17T02:56:52.078Z,17.00
2017-08-17T02:59:20.222Z,17.00
2017-08-17T03:01:49.278Z,17.10
2017-08-17T03:04:17.445Z,17.10
2017-08-17T03:06:45.613Z,17.10
2017-08-17T03:09:13.825Z,17.20
2017-08-17T03:11:41.996Z,17.20
2017-08-17T03:14:10.166Z,17.30
2017-08-17T03:16:38.350Z,17.30
2017-08-17T03:19:06.505Z,17.40
2017-08-17T03:21:35.553Z,17.30
2017-08-17T03:24:03.756Z,17.20
2017-08-17T03:26:31.910Z,17.10
2017-08-17T03:29:00.062Z,17.10
2017-08-17T03:31:29.026Z,16.90
2017-08-17T03:33:57.178Z,16.90
2017-08-17T03:36:25.326Z,16.90
2017-08-17T03:38:53.526Z,16.90
2017-08-17T03:41:21.694Z,16.90
2017-08-17T03:43:49.843Z,17.00
2017-08-17T03:46:18.021Z,17.00
2017-08-17T03:48:46.179Z,17.00
2017-08-17T03:51:15.109Z,17.10
2017-08-17T03:53:43.283Z,17.00
2017-08-17T03:56:11.450Z,17.00
2017-08-17T03:58:39.618Z,17.00
2017-08-17T04:01:08.245Z,16.90
2017-08-17T04:03:36.417Z,16.90
2017-08-17T04:06:04.583Z,16.90
2017-08-17T04:08:32.758Z,16.90
2017-08-17T04:11:01.512Z,16.80
2017-08-17T04:13:29.682Z,16.80
2017-08-17T04:15:58.631Z,16.70
2017-08-17T04:18:26.783Z,16.70
2017-08-17T04:20:54.946Z,16.70
2017-08-17T04:23:23.136Z,16.70
2017-08-17T04:25:51.327Z,16.80
2017-08-17T04:28:19.496Z,16.80
2017-08-17T04:30:47.688Z,16.80
2017-08-17T04:33:16.621Z,16.80
2017-08-17T04:35:44.774Z,16.70
2017-08-17T04:38:12.953Z,16.80
2017-08-17T04:40:41.099Z,16.80
2017-08-17T04:43:10.043Z,16.90
2017-08-17T04:45:38.249Z,16.90
2017-08-17T04:48:06.420Z,17.00
2017-08-17T04:50:34.584Z,17.20
2017-08-17T04:53:02.758Z,17.20
2017-08-17T04:55:30.939Z,17.20
2017-08-17T04:58:31.652Z,17.20
2017-08-17T05:00:59.820Z,17.20
2017-08-17T05:03:28.092Z,17.20
2017-08-17T05:05:56.305Z,17.20
2017-08-17T05:08:24.472Z,17.20
2017-08-17T05:10:52.649Z,17.30
2017-08-17T05:13:20.859Z,17.40
2017-08-17T05:15:49.812Z,17.70
2017-08-17T05:18:17.989Z,17.70
2017-08-17T05:20:46.184Z,17.80
2017-08-17T05:23:14.352Z,17.80
2017-08-17T05:25:42.529Z,17.90
2017-08-17T05:28:10.730Z,18.00
2017-08-17T05:30:39.669Z,18.10
2017-08-17T05:33:07.849Z,18.10
2017-08-17T05:35:36.036Z,18.20
2017-08-17T05:38:04.213Z,18.30
2017-08-17T05:40:32.367Z,18.50
2017-08-17T05:43:00.556Z,18.50
2017-08-17T05:45:28.709Z,18.50
2017-08-17T05:47:56.866Z,18.40
2017-08-17T05:50:25.055Z,18.40
2017-08-17T05:52:53.206Z,18.40
2017-08-17T05:55:21.375Z,18.40
2017-08-17T05:57:49.577Z,18.50
2017-08-17T06:00:17.738Z,18.50
2017-08-17T06:02:45.908Z,18.60
2017-08-17T06:05:14.311Z,18.60
2017-08-17T06:07:42.470Z,18.60
2017-08-17T06:10:10.644Z,18.80
2017-08-17T06:12:38.841Z,18.90
2017-08-17T06:15:06.994Z,19.10
2017-08-17T06:17:35.156Z,19.20
2017-08-17T06:20:03.377Z,19.30
2017-08-17T06:22:31.544Z,19.10
2017-08-17T06:24:59.697Z,19.00
2017-08-17T06:27:27.875Z,19.10
2017-08-17T06:29:56.059Z,19.10
2017-08-17T06:32:24.217Z,19.30
2017-08-17T06:34:52.432Z,19.20
2017-08-17T06:37:20.594Z,19.20
2017-08-17T06:39:48.746Z,19.20
2017-08-17T06:42:16.962Z,19.20
2017-08-17T06:44:45.115Z,19.20
2017-08-17T06:47:13.285Z,19.30
2017-08-17T06:49:41.467Z,19.40
2017-08-17T06:52:09.637Z,19.50
2017-08-17T06:54:37.799Z,19.60
2017-08-17T06:57:05.978Z,19.70
2017-08-17T06:59:34.155Z,19.60
2017-08-17T07:02:02.330Z,19.70
2017-08-17T07:04:30.534Z,19.60
2017-08-17T07:06:58.711Z,19.50
2017-08-17T07:09:26.876Z,19.60
2017-08-17T07:11:55.092Z,19.70
2017-08-17T07:14:24.031Z,19.90
2017-08-17T07:16:52.181Z,19.90
2017-08-17T07:19:20.399Z,20.10
2017-08-17T07:21:48.562Z,20.20
2017-08-17T07:24:16.738Z,20.50
2017-08-17T07:26:44.950Z,20.60
2017-08-17T07:29:13.870Z,20.70
2017-08-17T07:31:42.049Z,20.60
2017-08-17T07:34:10.245Z,20.60
2017-08-17T07:36:38.399Z,20.90
2017-08-17T07:39:06.550Z,21.10
2017-08-17T07:41:35.499Z,21.50
2017-08-17T07:44:03.677Z,21.50
2017-08-17T07:46:31.856Z,21.80
2017-08-17T07:49:00.042Z,22.10
2017-08-17T07:51:28.200Z,22.20
2017-08-17T07:53:56.350Z,22.20
2017-08-17T07:56:24.538Z,22.50
2017-08-17T07:58:52.706Z,22.80
2017-08-17T08:01:20.865Z,22.90
2017-08-17T08:03:49.064Z,23.10
2017-08-17T08:06:17.248Z,23.50
2017-08-17T08:08:45.424Z,24.00
2017-08-17T08:11:13.611Z,24.30
2017-08-17T08:13:41.771Z,24.30
2017-08-17T08:16:09.940Z,24.30
2017-08-17T08:18:38.158Z,24.90
2017-08-17T08:21:06.350Z,25.30
2017-08-17T08:23:34.537Z,25.20
2017-08-17T08:26:02.748Z,25.10
2017-08-17T08:28:31.146Z,25.10
2017-08-17T08:31:00.037Z,24.90
2017-08-17T08:33:28.266Z,25.00
2017-08-17T08:35:56.427Z,25.10
2017-08-17T08:38:24.612Z,25.10
2017-08-17T08:40:52.812Z,24.70
2017-08-17T08:43:21.005Z,24.80
2017-08-17T08:45:49.173Z,24.80
2017-08-17T08:48:17.398Z,25.20
2017-08-17T08:50:45.577Z,25.50
2017-08-17T08:53:13.747Z,25.80
2017-08-17T08:55:41.951Z,26.00
2017-08-17T08:58:10.107Z,26.80
2017-08-17T09:00:38.285Z,27.30
2017-08-17T09:03:06.505Z,28.10
2017-08-17T09:05:34.661Z,27.80
2017-08-17T09:08:02.840Z,27.20
2017-08-17T09:10:31.017Z,26.50
2017-08-17T09:12:59.186Z,26.40
2017-08-17T09:15:27.362Z,26.20
2017-08-17T09:17:55.563Z,26.30
2017-08-17T09:20:24.506Z,28.20
2017-08-17T09:22:52.685Z,28.20
2017-08-17T09:25:20.873Z,28.40
2017-08-17T09:27:49.031Z,28.10
2017-08-17T09:30:17.197Z,27.90
2017-08-17T09:32:45.407Z,27.70
2017-08-17T09:35:13.573Z,27.30
2017-08-17T09:37:41.753Z,27.10
2017-08-17T09:40:09.931Z,27.30
2017-08-17T09:42:38.113Z,27.10
2017-08-17T09:45:06.278Z,26.60
2017-08-17T09:47:34.469Z,26.40
2017-08-17T09:50:03.399Z,26.60
2017-08-17T09:52:31.589Z,26.60
2017-08-17T09:54:59.806Z,26.80
2017-08-17T09:57:28.762Z,27.30
2017-08-17T09:59:56.940Z,27.30
2017-08-17T10:02:25.126Z,27.50
2017-08-17T10:04:53.283Z,27.80
2017-08-17T10:07:21.469Z,27.50
2017-08-17T10:09:49.667Z,27.00
2017-08-17T10:12:17.831Z,26.90
2017-08-17T10:14:46.002Z,26.80
2017-08-17T10:17:14.210Z,26.60
2017-08-17T10:19:42.397Z,26.40
2017-08-17T10:22:11.330Z,26.20
2017-08-17T10:24:39.565Z,26.10
2017-08-17T10:27:07.770Z,26.20
2017-08-17T10:29:36.894Z,26.50
2017-08-17T10:32:05.086Z,26.80
2017-08-17T10:34:33.281Z,26.90
2017-08-17T10:37:02.207Z,27.30
2017-08-17T10:39:30.400Z,27.30
2017-08-17T10:41:58.577Z,27.80
2017-08-17T10:44:26.813Z,28.10
2017-08-17T10:46:55.004Z,28.10
2017-08-17T10:49:23.185Z,28.20
2017-08-17T10:51:51.361Z,28.50
2017-08-17T10:54:19.590Z,28.30
2017-08-17T10:56:48.523Z,28.00
2017-08-17T10:59:16.678Z,28.00
2017-08-17T11:01:44.874Z,27.60
2017-08-17T11:04:13.030Z,27.40
2017-08-17T11:06:41.187Z,27.10
2017-08-17T11:09:10.130Z,27.10
2017-08-17T11:11:38.302Z,27.10
2017-08-17T11:14:06.472Z,27.00
2017-08-17T11:16:34.651Z,26.60
2017-08-17T11:19:02.818Z,26.60
2017-08-17T11:21:31.022Z,26.80
2017-08-17T11:23:59.210Z,26.90
2017-08-17T11:26:27.399Z,27.00
2017-08-17T11:28:56.310Z,27.10
2017-08-17T11:31:24.510Z,27.00
2017-08-17T11:33:52.684Z,27.00
2017-08-17T11:36:20.861Z,27.20
2017-08-17T11:38:49.066Z,27.30
2017-08-17T11:41:17.223Z,27.30
2017-08-17T11:43:45.397Z,27.20
2017-08-17T11:46:13.594Z,27.50
2017-08-17T11:48:41.013Z,27.90
2017-08-17T11:51:08.593Z,28.20
2017-08-17T11:53:36.777Z,28.70
2017-08-17T11:56:04.931Z,29.00
2017-08-17T11:58:33.082Z,29.20
2017-08-17T12:01:02.448Z,29.40
2017-08-17T12:03:30.595Z,28.90
2017-08-17T12:05:58.789Z,28.50
2017-08-17T12:08:27.781Z,28.20
2017-08-17T12:10:55.966Z,28.20
2017-08-17T12:13:24.899Z,28.60
2017-08-17T12:15:53.109Z,28.60
2017-08-17T12:18:21.309Z,28.40
2017-08-17T12:20:50.242Z,28.10
2017-08-17T12:23:18.443Z,28.10
2017-08-17T12:25:46.602Z,28.00
2017-08-17T12:28:14.754Z,27.70
2017-08-17T12:30:42.938Z,27.50
2017-08-17T12:33:11.105Z,27.10
2017-08-17T12:35:39.261Z,27.00
2017-08-17T12:38:08.312Z,26.70
2017-08-17T12:40:36.467Z,26.70
2017-08-17T12:43:04.642Z,26.60
2017-08-17T12:45:32.827Z,26.70
2017-08-17T12:48:00.982Z,26.60
2017-08-17T12:50:29.148Z,26.50
2017-08-17T12:52:57.346Z,26.40
2017-08-17T12:55:25.543Z,26.40
2017-08-17T12:57:53.696Z,26.40
2017-08-17T13:00:21.871Z,26.30
2017-08-17T13:02:50.020Z,26.20
2017-08-17T13:05:18.169Z,26.20
2017-08-17T13:07:47.114Z,26.10
2017-08-17T13:10:15.738Z,26.00
2017-08-17T13:12:43.951Z,26.00
2017-08-17T13:15:12.126Z,26.10
2017-08-17T13:17:40.281Z,26.20
2017-08-17T13:20:09.200Z,26.10
2017-08-17T13:22:37.379Z,26.00
2017-08-17T13:25:05.531Z,26.00
2017-08-17T13:27:33.705Z,25.90
2017-08-17T13:30:02.647Z,25.50
2017-08-17T13:32:30.810Z,25.50
2017-08-17T13:34:58.974Z,25.40
2017-08-17T13:37:27.164Z,25.40
2017-08-17T13:39:55.336Z,25.40
2017-08-17T13:42:23.479Z,25.20
2017-08-17T13:44:51.672Z,25.20
2017-08-17T13:47:19.829Z,25.40
2017-08-17T13:49:48.005Z,25.20
2017-08-17T13:52:16.197Z,25.30
2017-08-17T13:54:44.351Z,25.30
2017-08-17T13:57:12.521Z,25.10
2017-08-17T13:59:40.721Z,25.00
2017-08-17T14:02:09.119Z,24.90
2017-08-17T14:04:37.274Z,24.80
2017-08-17T14:07:05.450Z,24.90
2017-08-17T14:09:33.606Z,24.90
2017-08-17T14:12:01.755Z,24.80
2017-08-17T14:14:30.697Z,24.40
2017-08-17T14:16:58.848Z,24.40
2017-08-17T14:19:27.022Z,24.40
2017-08-17T14:21:55.199Z,24.30
2017-08-17T14:24:23.367Z,24.30
2017-08-17T14:26:52.545Z,24.30
2017-08-17T14:29:21.491Z,24.40
2017-08-17T14:31:49.643Z,24.40
2017-08-17T14:34:17.792Z,24.60
2017-08-17T14:36:46.733Z,24.50
2017-08-17T14:39:14.873Z,24.50
2017-08-17T14:41:43.023Z,24.50
2017-08-17T14:44:11.981Z,24.40
2017-08-17T14:46:40.126Z,24.40
2017-08-17T14:49:08.292Z,24.30
2017-08-17T14:51:36.463Z,24.20
2017-08-17T14:54:04.632Z,24.10
2017-08-17T14:56:32.790Z,24.10
2017-08-17T14:59:02.102Z,24.10
2017-08-17T15:01:30.277Z,24.00
2017-08-17T15:03:59.247Z,24.10
2017-08-17T15:06:27.454Z,24.10
2017-08-17T15:08:55.627Z,24.20
2017-08-17T15:11:23.792Z,24.00
2017-08-17T15:13:52.726Z,23.80
2017-08-17T15:16:20.901Z,23.80
2017-08-17T15:18:49.070Z,23.80
2017-08-17T15:21:17.271Z,23.80
2017-08-17T15:23:45.449Z,23.80
2017-08-17T15:26:13.597Z,23.70
2017-08-17T15:28:41.793Z,23.60
2017-08-17T15:31:09.958Z,23.40
2017-08-17T15:33:38.345Z,23.30
2017-08-17T15:36:06.525Z,23.30
2017-08-17T15:38:34.694Z,23.20
2017-08-17T15:41:02.856Z,23.10
2017-08-17T15:43:31.057Z,23.00
2017-08-17T15:45:59.216Z,22.90
2017-08-17T15:48:27.374Z,22.80
2017-08-17T15:50:55.546Z,22.70
2017-08-17T15:53:23.702Z,22.60
2017-08-17T15:55:51.846Z,22.40
2017-08-17T15:58:20.803Z,22.40
2017-08-17T16:00:48.973Z,22.40
2017-08-17T16:03:17.141Z,22.30
2017-08-17T16:05:45.318Z,22.30
2017-08-17T16:08:13.516Z,22.30
2017-08-17T16:10:41.677Z,22.20
2017-08-17T16:13:09.873Z,22.00
2017-08-17T16:15:38.048Z,22.10
2017-08-17T16:18:06.199Z,22.00
2017-08-17T16:20:34.427Z,22.00
2017-08-17T16:23:02.587Z,22.00
2017-08-17T16:25:31.507Z,21.90
2017-08-17T16:27:59.683Z,21.90
2017-08-17T16:30:27.869Z,21.90
2017-08-17T16:32:56.029Z,22.00
2017-08-17T16:35:24.231Z,22.00
2017-08-17T16:37:52.405Z,21.90
2017-08-17T16:40:20.560Z,21.90
2017-08-17T16:42:48.760Z,21.80
2017-08-17T16:45:16.911Z,21.80
2017-08-17T16:47:45.081Z,21.80
2017-08-17T16:50:13.276Z,21.70
2017-08-17T16:52:41.428Z,21.50
2017-08-17T16:55:09.596Z,21.40
2017-08-17T16:57:37.793Z,21.40
2017-08-17T17:00:05.971Z,21.30
2017-08-17T17:02:34.140Z,21.20
2017-08-17T17:05:02.331Z,21.10
2017-08-17T17:07:30.482Z,21.00
2017-08-17T17:09:58.653Z,21.00
2017-08-17T17:12:26.833Z,20.80
2017-08-17T17:14:55.004Z,20.60
2017-08-17T17:17:23.154Z,20.40
2017-08-17T17:19:52.097Z,20.20
2017-08-17T17:22:20.247Z,20.20
2017-08-17T17:24:48.422Z,19.90
2017-08-17T17:27:16.603Z,19.90
2017-08-17T17:29:44.778Z,19.90
2017-08-17T17:32:12.931Z,20.00
2017-08-17T17:34:41.129Z,20.20
2017-08-17T17:37:09.277Z,20.20
2017-08-17T17:39:37.429Z,20.20
2017-08-17T17:42:06.402Z,20.20
2017-08-17T17:44:34.555Z,20.10
2017-08-17T17:47:02.707Z,20.20
2017-08-17T17:49:30.883Z,20.20
2017-08-17T17:51:59.048Z,20.30
2017-08-17T17:54:27.230Z,20.40
2017-08-17T17:56:55.447Z,20.40
2017-08-17T17:59:23.627Z,20.50
2017-08-17T18:01:51.820Z,20.50
2017-08-17T18:04:20.797Z,20.20
2017-08-17T18:06:48.955Z,20.20
2017-08-17T18:09:17.135Z,20.20
2017-08-17T18:11:45.325Z,20.30
2017-08-17T18:14:13.482Z,20.20
2017-08-17T18:16:41.654Z,20.10
2017-08-17T18:19:09.849Z,20.20
2017-08-17T18:21:38.002Z,20.20
2017-08-17T18:24:06.151Z,20.20
2017-08-17T18:26:34.346Z,20.30
2017-08-17T18:29:02.506Z,20.30
2017-08-17T18:31:30.661Z,20.40
2017-08-17T18:33:58.871Z,20.40
2017-08-17T18:36:27.026Z,20.40
2017-08-17T18:38:55.183Z,20.40
2017-08-17T18:41:23.362Z,20.40
2017-08-17T18:43:51.516Z,20.40
2017-08-17T18:46:20.448Z,20.30
2017-08-17T18:48:48.653Z,20.30
2017-08-17T18:51:16.821Z,20.40
2017-08-17T18:53:44.978Z,20.30
2017-08-17T18:56:13.161Z,20.30
2017-08-17T18:58:41.650Z,20.20
2017-08-17T19:01:09.841Z,20.20
2017-08-17T19:03:38.024Z,20.20
2017-08-17T19:06:06.193Z,20.30
2017-08-17T19:08:34.358Z,20.30
2017-08-17T19:11:02.539Z,20.40
2017-08-17T19:13:30.715Z,20.40
2017-08-17T19:15:58.898Z,20.50
2017-08-17T19:18:27.079Z,20.40
2017-08-17T19:20:55.999Z,20.40
2017-08-17T19:23:24.166Z,20.30
2017-08-17T19:25:52.362Z,20.40
2017-08-17T19:28:20.520Z,20.30
2017-08-17T19:30:48.673Z,20.30
2017-08-17T19:33:17.634Z,20.30
2017-08-17T19:35:45.787Z,20.30
2017-08-17T19:38:13.971Z,20.40
2017-08-17T19:40:42.163Z,20.30
2017-08-17T19:43:10.323Z,20.30
2017-08-17T19:45:38.477Z,20.20
2017-08-17T19:48:06.657Z,20.20
2017-08-17T19:50:34.806Z,20.30
2017-08-17T19:53:02.985Z,20.30
2017-08-17T19:55:31.181Z,20.30
2017-08-17T19:57:59.334Z,20.30
2017-08-17T20:00:27.491Z,20.40
2017-08-17T20:02:56.434Z,20.40
2017-08-17T20:05:24.587Z,20.40
2017-08-17T20:07:52.736Z,20.30
2017-08-17T20:10:21.682Z,20.30
2017-08-17T20:12:49.831Z,20.30
2017-08-17T20:15:18.004Z,20.30
2017-08-17T20:17:46.198Z,20.30
2017-08-17T20:20:14.369Z,20.30
2017-08-17T20:22:42.526Z,20.40
2017-08-17T20:25:10.710Z,20.30
2017-08-17T20:27:38.863Z,20.30
2017-08-17T20:30:07.036Z,20.30
2017-08-17T20:32:35.217Z,20.30
2017-08-17T20:35:03.389Z,20.30
2017-08-17T20:37:31.538Z,20.30
2017-08-17T20:40:00.482Z,20.20
2017-08-17T20:42:28.652Z,20.20
2017-08-17T20:44:56.824Z,20.20
2017-08-17T20:47:25.029Z,20.20
2017-08-17T20:49:53.192Z,20.20
2017-08-17T20:52:21.351Z,20.20
2017-08-17T20:54:49.539Z,20.20
2017-08-17T20:57:17.697Z,20.20
2017-08-17T20:59:45.858Z,20.20
2017-08-17T21:02:14.475Z,20.20
2017-08-17T21:04:42.630Z,20.20
2017-08-17T21:07:10.783Z,20.20
2017-08-17T21:09:38.981Z,20.30
2017-08-17T21:12:07.143Z,20.20
2017-08-17T21:14:35.300Z,20.30
2017-08-17T21:17:03.483Z,20.30
2017-08-17T21:19:31.653Z,20.30
2017-08-17T21:21:59.830Z,20.20
2017-08-17T21:24:28.025Z,20.20
2017-08-17T21:26:56.183Z,20.30
2017-08-17T21:29:24.342Z,20.20
2017-08-17T21:31:53.304Z,20.30
2017-08-17T21:34:21.475Z,20.30
2017-08-17T21:36:49.632Z,20.30
2017-08-17T21:39:17.829Z,20.20
2017-08-17T21:41:46.013Z,20.10
2017-08-17T21:44:14.186Z,20.10
2017-08-17T21:46:43.153Z,20.10
2017-08-17T21:49:11.311Z,20.10
2017-08-17T21:51:39.486Z,20.20
2017-08-17T21:54:07.689Z,20.20
2017-08-17T21:56:35.873Z,20.20
2017-08-17T21:59:04.046Z,20.20
2017-08-17T22:01:32.245Z,20.20
2017-08-17T22:04:01.185Z,20.10
2017-08-17T22:06:29.333Z,20.20
2017-08-17T22:08:57.529Z,20.20
2017-08-17T22:11:25.687Z,20.10
2017-08-17T22:13:53.857Z,20.10
2017-08-17T22:16:22.040Z,20.10
2017-08-17T22:18:50.197Z,20.20
2017-08-17T22:21:18.350Z,20.10
2017-08-17T22:23:47.304Z,20.10
2017-08-17T22:26:15.455Z,20.10
2017-08-17T22:28:43.621Z,20.10
2017-08-17T22:31:11.815Z,20.10
2017-08-17T22:33:39.972Z,20.00
2017-08-17T22:36:08.691Z,20.10
2017-08-17T22:38:36.896Z,20.10
2017-08-17T22:41:05.076Z,20.10
2017-08-17T22:43:33.233Z,20.10
2017-08-17T22:46:01.443Z,20.10
2017-08-17T22:48:29.608Z,20.10
2017-08-17T22:50:58.542Z,20.10
2017-08-17T22:53:26.722Z,20.10
2017-08-17T22:55:54.893Z,20.10
2017-08-17T22:58:23.044Z,20.00
2017-08-17T23:00:51.250Z,20.10
2017-08-17T23:03:19.408Z,20.10
2017-08-17T23:05:47.569Z,20.10
2017-08-17T23:08:15.765Z,20.10
2017-08-17T23:10:43.933Z,20.00
2017-08-17T23:13:12.105Z,19.90
2017-08-17T23:15:40.279Z,19.90
2017-08-17T23:18:08.451Z,19.90
2017-08-17T23:20:36.626Z,19.90
2017-08-17T23:23:04.827Z,19.90
2017-08-17T23:25:32.982Z,19.90
2017-08-17T23:28:01.133Z,19.90
2017-08-17T23:30:29.325Z,20.00
2017-08-17T23:32:57.479Z,20.00
2017-08-17T23:35:25.653Z,20.00
2017-08-17T23:37:53.834Z,20.00
2017-08-17T23:40:21.983Z,19.90
2017-08-17T23:42:50.901Z,19.80
2017-08-17T23:45:19.100Z,19.80
2017-08-17T23:47:47.297Z,20.00
2017-08-17T23:50:15.456Z,19.90
2017-08-17T23:52:43.653Z,19.90
2017-08-17T23:55:11.807Z,19.90
2017-08-17T23:57:39.973Z,19.90
